Airfield :
LOGIN :

Register | Disclaimer

   EN    FR    IT 

 










Legend :    VFR   Marginal VFR   IFR   Intensive IFR   Very Intensive IFR
Visi :
Ceiling :
>= 8 km
>= 3000ft
5 to 8 km
1000 to 3000 ft
1500m to 5 km
500 to 1000 ft
800 to 1500m
200 to 500 ft
< 800m
< 200 ft
Symbols :   Thunderstorms  Fog  Heavy snow  Heavy precipitations  Wind > 20 kt
SIGMETs :     Misc.  Thunderstorms  Icing  Turbulence  Mountain Waves  Volcanic Ashes






- Airport Elevation : 302 ft
- IATA code : CGN


EDDK - Cologne Bonn

CURRENT METAR :
  • 200150Z 15007KT 9999 -RA BKN030 05/03 Q1019 NOSIG

EXPIRED METARs :
  • 200120Z 15007KT 9999 -RA FEW035 BKN042 05/03 Q1020 NOSIG
  • 200050Z 14006KT 9999 -RA OVC037 05/03 Q1020 NOSIG
  • 200020Z 15006KT 9999 -RA OVC032 05/03 Q1020 NOSIG
  • 192350Z 15006KT 9999 -RA OVC030 04/03 Q1021 NOSIG

TAF TAF EDDK
Valid from the 20 at 00:00 until the 21 at 06:00 UTC


192300Z 2000/2106 18007KT 9999 OVC020
BECMG 2011/2013 20012KT
BECMG 2018/2020 20015G25KT
TEMPO 2020/2021 29025G40KT 4000 +SHRA BKN020CB
BECMG 2021/2023 29015G25KT
TEMPO 2022/2024 SHRA BKN015CB
BECMG 2104/2106 26010KT



MET'MAP, your aeronautical weather chart ! - Copyright ORBIFLY December 2007 - Disclaimer

ORBIFLY MET'MAP TEAM :

Programming & Development : Alexandra Zaïnal
Concept & original design : Baudouin d'Aumeries
Assistance for programming : Marc-Olivier Méhu
Technical & hardware support : Manuel Goepfert

Contact : metmap@orbifly.com




SOURCES & CREDITS :

   NOAA